Aérodrome :
LOGIN :

S'inscrire | Disclaimer

   EN    FR    IT 

 










Légende :    VFR   VFR Marginal   IFR   IFR Intensif   IFR Très Intensif
Visi : 
Plafond : 
>= 8 km
>= 3000ft
5 à 8 km
1000 à 3000 ft
1500m à 5 km
500 à 1000 ft
800 à 1500m
200 à 500 ft
< 800m
< 200 ft
Symboles :   Orages  Brouillard  Fortes neiges  Fortes précipitations  Vent > 20 kt
SIGMETs :   Divers  Orages  Givrage  Turbulence  Onde Orograph.  Cendres Volcan.







- Altitude de l'aérodrome : 479 ft
- Code IATA : DOL
- Voir les cartes d'approche


LFRG - Deauville

DERNIER METAR :
  • 170930Z AUTO VRB02KT 6000 BKN003 13/13 Q1020 BECMG BKN008

METARs EXPIRÉS :
  • 170900Z AUTO VRB03KT 3300 0900 R30/P2000 BCFG VV/// 13/12 Q1020 BECMG 9999 NSW BKN008
  • 170830Z AUTO 17003KT 1000 0500 R30/1800U BCFG VV/// 12/12 Q1020 BECMG 9999 NSW BKN008
  • 170800Z AUTO VRB01KT 0400 0300 R30/1100U FG VV/// 12/12 Q1019 BECMG 9999 NSW BKN008
  • 170730Z AUTO 00000KT 0800 0250 R30/1800N FG VV/// 10/10 Q1019 BECMG 9999 NSW BKN008
  • 170700Z AUTO 17002KT 0300 0200 R30/0600U FG VV/// 09/09 Q1019 NOSIG

TAF TAF LFRG
Valide du 17 à 09h jusqu'au 17 à 18h UTC


170800Z 1709/1718 VRB03KT 0800 FG VV///
BECMG 1709/1711 9999 NSW BKN008
BECMG 1712/1714 SCT012
BECMG 1716/1718 02006KT
ATIS : +33 2 31 65 65 36
Pas de NOTAMs connus pour ce terrain.



MET'MAP, la Météo Aéronautique d'un coup d'oeil ! - Copyright ORBIFLY Décembre 2007 - Disclaimer

ORBIFLY MET'MAP TEAM :

Programmation & Développement : Alexandra Zaïnal
Conception & Développement : Baudouin d'Aumeries
Co-Programmation & Développement : Marc-Olivier Méhu
Soutien technique & logistique : Manuel Goepfert

Contact : metmap@orbifly.com




SOURCES & CREDITS :

   NOAA